Time;durP1;ratioP1;P1;durP2;ratioP2;P2;SDS_P1;SDS_P2;PMS_P1;PMS_P2;Temp;Humidity;BMP_temperature;BMP_pressure;BME280_temperature;BME280_humidity;BME280_pressure;Samples;Min_cycle;Max_cycle;Signal;HPM_P1;HPM_P2
2023/03/17 00:01:43;;;;;;;2.10;1.93;;;;;;;-142.52;100.00;62712.56;6120346;28;20259;-74
2023/03/17 00:05:14;;;;;;;1.70;1.27;;;;;;;-142.52;100.00;62712.56;6114293;28;20227;-75
2023/03/17 00:08:37;;;;;;;1.47;1.37;;;;;;;-142.52;100.00;62712.56;6100798;28;20381;-74
2023/03/17 00:11:58;;;;;;;1.93;1.83;;;;;;;-142.52;100.00;62712.56;6109734;28;20234;-76
2023/03/17 00:15:19;;;;;;;2.10;0.80;;;;;;;-142.52;100.00;62712.56;6110779;28;20719;-75
2023/03/17 00:18:40;;;;;;;1.87;1.77;;;;;;;-142.52;100.00;62712.56;6120291;28;20230;-74
2023/03/17 00:22:04;;;;;;;1.43;1.37;;;;;;;-142.52;100.00;62712.56;6122755;28;20729;-74
2023/03/17 00:25:29;;;;;;;2.17;1.50;;;;;;;-142.52;100.00;62712.56;6109005;28;20239;-74
2023/03/17 00:28:50;;;;;;;1.47;1.33;;;;;;;-142.52;100.00;62712.56;6122317;28;20741;-75
2023/03/17 00:32:16;;;;;;;2.10;1.47;;;;;;;-142.52;100.00;62712.56;6117350;28;20559;-75
2023/03/17 00:35:39;;;;;;;2.27;1.33;;;;;;;-142.52;100.00;62712.56;6121947;28;20222;-75
2023/03/17 00:39:00;;;;;;;1.63;1.50;;;;;;;-142.52;100.00;62712.56;6123338;28;20247;-74
2023/03/17 00:42:22;;;;;;;2.30;1.20;;;;;;;-142.52;100.00;62712.56;6110835;28;20448;-74
2023/03/17 00:45:43;;;;;;;1.23;1.07;;;;;;;-142.52;100.00;62712.56;6110014;28;20235;-75
2023/03/17 00:49:14;;;;;;;2.07;1.73;;;;;;;-142.52;100.00;62712.56;6123720;28;20306;-75
2023/03/17 00:52:35;;;;;;;5.27;1.10;;;;;;;-142.52;100.00;62712.56;6105304;28;20227;-75
2023/03/17 00:55:57;;;;;;;2.40;1.50;;;;;;;-142.52;100.00;62712.56;6097390;28;20554;-73
2023/03/17 00:59:24;;;;;;;1.73;1.20;;;;;;;-142.52;100.00;62712.56;6103611;28;20231;-75
2023/03/17 01:02:47;;;;;;;1.20;1.07;;;;;;;-142.52;100.00;62712.56;6128294;28;20242;-74
2023/03/17 01:06:11;;;;;;;3.10;1.97;;;;;;;-142.52;100.00;62712.56;6095686;28;20226;-74
2023/03/17 01:09:32;;;;;;;2.03;1.53;;;;;;;-142.52;100.00;62712.56;6105015;28;20235;-73
2023/03/17 01:12:56;;;;;;;2.03;1.67;;;;;;;-142.52;100.00;62712.56;6114180;28;20239;-74
2023/03/17 01:16:20;;;;;;;3.27;1.30;;;;;;;-142.52;100.00;62712.56;6090675;28;20304;-74
2023/03/17 01:19:41;;;;;;;3.03;1.07;;;;;;;-142.52;100.00;62712.56;6094803;28;20557;-75
2023/03/17 01:23:02;;;;;;;3.53;1.87;;;;;;;-142.52;100.00;62712.56;6099654;28;20232;-74
2023/03/17 01:26:23;;;;;;;3.37;1.80;;;;;;;-142.52;100.00;62712.56;6091097;28;20359;-74
2023/03/17 01:29:44;;;;;;;2.23;1.70;;;;;;;-142.52;100.00;62712.56;6109566;28;20227;-74
2023/03/17 01:33:09;;;;;;;2.70;1.50;;;;;;;-142.52;100.00;62712.56;6122042;28;20595;-73
2023/03/17 01:36:30;;;;;;;1.97;1.73;;;;;;;-142.52;100.00;62712.56;6111165;28;20282;-74
2023/03/17 01:39:51;;;;;;;2.03;1.63;;;;;;;-142.52;100.00;62712.56;6082451;28;20502;-73
2023/03/17 01:43:22;;;;;;;1.70;1.60;;;;;;;-142.52;100.00;62712.56;6103777;28;20268;-74
2023/03/17 01:46:44;;;;;;;1.50;1.40;;;;;;;-142.52;100.00;62712.56;6104118;28;20625;-74
2023/03/17 01:50:09;;;;;;;2.67;1.33;;;;;;;-142.52;100.00;62712.56;6114824;28;20235;-74
2023/03/17 01:53:30;;;;;;;2.17;2.07;;;;;;;-142.52;100.00;62712.56;6119555;28;20528;-73
2023/03/17 01:56:54;;;;;;;2.00;1.83;;;;;;;-142.52;100.00;62712.56;6099496;28;20240;-73
2023/03/17 02:00:19;;;;;;;2.90;1.50;;;;;;;-142.52;100.00;62712.56;6098578;28;20345;-74
2023/03/17 02:03:40;;;;;;;1.93;1.60;;;;;;;-142.52;100.00;62712.56;6129557;28;20239;-74
2023/03/17 02:07:03;;;;;;;2.27;2.07;;;;;;;-142.52;100.00;62712.56;6100749;28;20227;-74
2023/03/17 02:10:27;;;;;;;3.03;2.20;;;;;;;-142.52;100.00;62712.56;6081739;29;20240;-74
2023/03/17 02:13:48;;;;;;;2.67;2.13;;;;;;;-142.52;100.00;62712.56;6116644;28;20226;-73
2023/03/17 02:17:09;;;;;;;1.37;1.37;;;;;;;-142.52;100.00;62712.56;6081949;28;20238;-73
2023/03/17 02:21:13;;;;;;;2.60;1.70;;;;;;;-142.52;100.00;62712.56;6114114;28;20751;-74
2023/03/17 02:24:39;;;;;;;2.63;1.70;;;;;;;-142.52;100.00;62712.56;6095344;28;20682;-74
2023/03/17 02:28:07;;;;;;;2.17;1.97;;;;;;;-142.52;100.00;62712.56;6119764;28;20531;-74
2023/03/17 02:31:29;;;;;;;2.93;2.60;;;;;;;-142.52;100.00;62712.56;6111714;28;20231;-73
2023/03/17 02:34:50;;;;;;;3.20;2.10;;;;;;;-142.52;100.00;62712.56;6105878;28;20227;-74
2023/03/17 02:38:11;;;;;;;3.70;2.40;;;;;;;-142.52;100.00;62712.56;6108730;28;20247;-75
2023/03/17 02:41:34;;;;;;;2.47;2.27;;;;;;;-142.52;100.00;62712.56;6104783;28;20231;-74
2023/03/17 02:44:55;;;;;;;2.50;1.83;;;;;;;-142.52;100.00;62712.56;6098504;28;20231;-74
2023/03/17 02:48:16;;;;;;;2.97;2.77;;;;;;;-142.52;100.00;62712.56;6119126;28;20314;-73
2023/03/17 02:51:37;;;;;;;2.13;2.03;;;;;;;-142.52;100.00;62712.56;6106896;28;20235;-74
2023/03/17 02:54:58;;;;;;;4.17;2.10;;;;;;;-142.52;100.00;62712.56;6114492;28;20232;-74
2023/03/17 02:58:20;;;;;;;1.83;1.20;;;;;;;-142.52;100.00;62712.56;6115452;28;20238;-73
2023/03/17 03:01:41;;;;;;;1.50;1.40;;;;;;;-142.52;100.00;62712.56;6108801;28;20247;-73
2023/03/17 03:05:02;;;;;;;2.30;2.10;;;;;;;-142.52;100.00;62712.56;6110140;28;20239;-74
2023/03/17 03:08:22;;;;;;;1.33;1.30;;;;;;;-142.52;100.00;62712.56;6110412;28;20589;-74
2023/03/17 03:11:43;;;;;;;2.23;1.80;;;;;;;-142.52;100.00;62712.56;6106244;28;20239;-74
2023/03/17 03:15:08;;;;;;;4.67;2.40;;;;;;;-142.52;100.00;62712.56;6104554;28;20239;-75
2023/03/17 03:18:29;;;;;;;1.73;1.63;;;;;;;-142.52;100.00;62712.56;6109685;28;20625;-74
2023/03/17 03:21:50;;;;;;;2.90;1.97;;;;;;;-142.52;100.00;62712.56;6117518;28;20807;-73
2023/03/17 03:25:11;;;;;;;2.60;2.23;;;;;;;-142.52;100.00;62712.56;6108266;28;20238;-74
2023/03/17 03:28:32;;;;;;;1.53;1.43;;;;;;;-142.52;100.00;62712.56;6112495;28;20235;-73
2023/03/17 03:31:54;;;;;;;2.83;2.30;;;;;;;-142.52;100.00;62712.56;6101409;28;20338;-74
2023/03/17 03:35:15;;;;;;;2.77;2.30;;;;;;;-142.52;100.00;62712.56;6110887;28;20273;-74
2023/03/17 03:38:36;;;;;;;1.97;1.80;;;;;;;-142.52;100.00;62712.56;6117696;28;20232;-74
2023/03/17 03:41:57;;;;;;;1.93;1.83;;;;;;;-142.52;100.00;62712.56;6105245;28;20264;-74
2023/03/17 03:45:18;;;;;;;2.67;2.10;;;;;;;-142.52;100.00;62712.56;6113331;28;20669;-74
2023/03/17 03:48:40;;;;;;;2.87;1.60;;;;;;;-142.52;100.00;62712.56;6122445;28;20533;-74
2023/03/17 03:52:01;;;;;;;2.27;2.07;;;;;;;-142.52;100.00;62712.56;6108380;28;21865;-74
2023/03/17 03:55:22;;;;;;;1.77;1.67;;;;;;;-142.52;100.00;62712.56;6118569;28;20612;-73
2023/03/17 03:58:43;;;;;;;2.17;2.00;;;;;;;-142.52;100.00;62712.56;6122765;28;20243;-74
2023/03/17 04:02:03;;;;;;;1.77;1.63;;;;;;;-142.52;100.00;62712.56;6109896;28;20235;-74
2023/03/17 04:05:25;;;;;;;2.60;2.40;;;;;;;-142.52;100.00;62712.56;6117232;28;20235;-75
2023/03/17 04:08:46;;;;;;;2.30;2.10;;;;;;;-142.52;100.00;62712.56;6124462;28;20313;-73
2023/03/17 04:12:08;;;;;;;3.63;2.27;;;;;;;-142.52;100.00;62712.56;6110593;28;20239;-73
2023/03/17 04:15:29;;;;;;;3.33;2.57;;;;;;;-142.52;100.00;62712.56;6111048;28;21351;-74
2023/03/17 04:18:51;;;;;;;2.33;2.07;;;;;;;-142.52;100.00;62712.56;6125379;28;20231;-73
2023/03/17 04:22:13;;;;;;;4.57;2.60;;;;;;;-142.52;100.00;62712.56;6119179;28;22858;-75
2023/03/17 04:25:34;;;;;;;2.03;1.77;;;;;;;-142.52;100.00;62712.56;6076976;28;1058273;-74
2023/03/17 04:28:54;;;;;;;3.53;2.67;;;;;;;-142.52;100.00;62712.56;6121323;28;20666;-75
2023/03/17 04:32:15;;;;;;;3.57;1.70;;;;;;;-142.52;100.00;62712.56;6105621;28;20261;-74
2023/03/17 04:35:36;;;;;;;2.13;2.00;;;;;;;-142.52;100.00;62712.56;6103741;28;20223;-74
2023/03/17 04:38:59;;;;;;;3.13;2.53;;;;;;;-142.52;100.00;62712.56;6124203;28;20247;-74
2023/03/17 04:42:20;;;;;;;2.77;2.57;;;;;;;-142.52;100.00;62712.56;6102331;28;20235;-73
2023/03/17 04:45:41;;;;;;;2.50;1.93;;;;;;;-142.52;100.00;62712.56;6098793;28;20227;-75
2023/03/17 04:49:02;;;;;;;1.83;1.73;;;;;;;-142.52;100.00;62712.56;6125132;28;20234;-74
2023/03/17 04:52:23;;;;;;;2.60;2.40;;;;;;;-142.52;100.00;62712.56;6083237;28;20235;-74
2023/03/17 04:55:45;;;;;;;2.77;2.47;;;;;;;-142.52;100.00;62712.56;6113934;28;20232;-74
2023/03/17 04:59:06;;;;;;;2.03;1.80;;;;;;;-142.52;100.00;62712.56;6119701;28;20559;-74
2023/03/17 05:02:27;;;;;;;2.57;1.80;;;;;;;-142.52;100.00;62712.56;6109797;28;20227;-75
2023/03/17 05:05:49;;;;;;;2.53;2.30;;;;;;;-142.52;100.00;62712.56;6115744;28;20227;-75
2023/03/17 05:09:11;;;;;;;1.90;1.80;;;;;;;-142.52;100.00;62712.56;6111956;28;21110;-75
2023/03/17 05:12:33;;;;;;;2.13;1.97;;;;;;;-142.52;100.00;62712.56;6097811;28;20554;-74
2023/03/17 05:15:55;;;;;;;2.57;2.37;;;;;;;-142.52;100.00;62712.56;6115074;28;20231;-75
2023/03/17 05:19:17;;;;;;;6.10;2.17;;;;;;;-142.52;100.00;62712.56;6123205;28;20238;-75
2023/03/17 05:22:37;;;;;;;2.50;2.30;;;;;;;-142.52;100.00;62712.56;6097452;28;20282;-74
2023/03/17 05:25:58;;;;;;;2.80;2.60;;;;;;;-142.52;100.00;62712.56;6110465;28;20239;-75
2023/03/17 05:29:21;;;;;;;5.77;2.93;;;;;;;-142.52;100.00;62712.56;6120466;28;20609;-75
2023/03/17 05:32:41;;;;;;;3.37;2.47;;;;;;;-142.52;100.00;62712.56;6126315;28;21278;-74
2023/03/17 05:36:03;;;;;;;5.00;3.50;;;;;;;-142.52;100.00;62712.56;6113135;28;20462;-75
2023/03/17 05:39:24;;;;;;;3.77;3.37;;;;;;;-142.52;100.00;62712.56;6108609;28;20243;-76
2023/03/17 05:42:45;;;;;;;3.17;2.57;;;;;;;-142.52;100.00;62712.56;6123516;28;20235;-74
2023/03/17 05:46:08;;;;;;;2.23;2.00;;;;;;;-142.52;100.00;62712.56;6093341;28;20232;-75
2023/03/17 05:49:29;;;;;;;4.60;2.53;;;;;;;-142.52;100.00;62712.56;6127343;28;20268;-75
2023/03/17 05:52:51;;;;;;;2.87;2.67;;;;;;;-142.52;100.00;62712.56;6128625;28;20243;-75
2023/03/17 05:56:12;;;;;;;3.97;3.57;;;;;;;-142.52;100.00;62712.56;6114833;28;20247;-74
2023/03/17 05:59:32;;;;;;;3.43;3.13;;;;;;;-142.52;100.00;62712.56;6123280;28;20289;-74
2023/03/17 06:02:54;;;;;;;3.40;2.20;;;;;;;-142.52;100.00;62712.56;6115827;28;20502;-74
2023/03/17 06:06:16;;;;;;;2.43;2.13;;;;;;;-142.52;100.00;62712.56;6104785;28;20318;-74
2023/03/17 06:09:37;;;;;;;2.27;2.13;;;;;;;-142.52;100.00;62712.56;6121156;28;20231;-73
2023/03/17 06:12:58;;;;;;;2.50;2.30;;;;;;;-142.52;100.00;62712.56;6128967;28;20259;-73
2023/03/17 06:16:19;;;;;;;4.60;3.50;;;;;;;-142.52;100.00;62712.56;6106556;28;20346;-74
2023/03/17 06:19:42;;;;;;;3.47;2.17;;;;;;;-142.52;100.00;62712.56;6119518;28;20231;-74
2023/03/17 06:23:03;;;;;;;4.27;2.47;;;;;;;-142.52;100.00;62712.56;6129039;28;20266;-75
2023/03/17 06:26:23;;;;;;;8.73;3.80;;;;;;;-142.52;100.00;62712.56;6106352;28;20515;-75
2023/03/17 06:29:45;;;;;;;8.37;2.93;;;;;;;-142.52;100.00;62712.56;6112613;28;20235;-75
2023/03/17 06:33:06;;;;;;;3.60;3.30;;;;;;;-142.52;100.00;62712.56;6118507;28;20223;-75
2023/03/17 06:36:29;;;;;;;4.20;3.63;;;;;;;-142.52;100.00;62712.56;6102555;28;20244;-75
2023/03/17 06:39:50;;;;;;;5.13;2.97;;;;;;;-142.52;100.00;62712.56;6111892;28;20613;-75
2023/03/17 06:43:11;;;;;;;3.50;2.20;;;;;;;-142.52;100.00;62712.56;6115233;28;20243;-74
2023/03/17 06:46:32;;;;;;;4.10;3.07;;;;;;;-142.52;100.00;62712.56;6106354;28;20228;-75
2023/03/17 06:49:53;;;;;;;4.00;3.37;;;;;;;-142.52;100.00;62712.56;6105552;28;20254;-74
2023/03/17 06:53:16;;;;;;;3.60;2.93;;;;;;;-142.52;100.00;62712.56;6113933;28;20281;-76
2023/03/17 06:56:37;;;;;;;4.27;2.83;;;;;;;-142.52;100.00;62712.56;6097490;28;20238;-74
2023/03/17 06:59:58;;;;;;;2.80;2.47;;;;;;;-142.52;100.00;62712.56;6103800;28;20252;-74
2023/03/17 07:03:18;;;;;;;3.50;2.70;;;;;;;-142.52;100.00;62712.56;6114461;28;20235;-74
2023/03/17 07:06:39;;;;;;;2.63;2.43;;;;;;;-142.52;100.00;62712.56;6105134;28;20239;-74
2023/03/17 07:10:02;;;;;;;2.37;2.17;;;;;;;-142.52;100.00;62712.56;6100379;28;23887;-75
2023/03/17 07:13:24;;;;;;;3.10;2.77;;;;;;;-142.52;100.00;62712.56;6096576;28;20243;-74
2023/03/17 07:16:46;;;;;;;3.23;2.77;;;;;;;-142.52;100.00;62712.56;6102532;28;20227;-73
2023/03/17 07:20:08;;;;;;;2.53;2.33;;;;;;;-142.52;100.00;62712.56;6116371;28;20255;-73
2023/03/17 07:23:29;;;;;;;3.67;2.70;;;;;;;-142.52;100.00;62712.56;6124718;28;20227;-77
2023/03/17 07:26:52;;;;;;;3.03;2.73;;;;;;;-142.52;100.00;62712.56;6100367;28;20239;-76
2023/03/17 07:30:17;;;;;;;2.93;2.63;;;;;;;-142.52;100.00;62712.56;6102486;28;20264;-76
2023/03/17 07:33:38;;;;;;;3.00;2.70;;;;;;;-142.52;100.00;62712.56;6108773;28;20239;-78
2023/03/17 07:36:59;;;;;;;3.03;2.40;;;;;;;-142.52;100.00;62712.56;6086791;28;20239;-79
2023/03/17 07:40:21;;;;;;;2.50;2.30;;;;;;;-142.52;100.00;62712.56;6120999;28;20247;-80
2023/03/17 07:43:43;;;;;;;3.73;3.40;;;;;;;-142.52;100.00;62712.56;6121358;28;20227;-78
2023/03/17 07:47:03;;;;;;;2.97;2.53;;;;;;;-142.52;100.00;62712.56;6115182;28;20522;-78
2023/03/17 07:50:24;;;;;;;5.80;2.73;;;;;;;-142.52;100.00;62712.56;6118420;28;20231;-78
2023/03/17 07:53:45;;;;;;;4.57;2.73;;;;;;;-142.52;100.00;62712.56;6131223;28;20243;-78
2023/03/17 07:57:06;;;;;;;4.83;3.60;;;;;;;-142.52;100.00;62712.56;6111025;28;20227;-79
2023/03/17 08:00:29;;;;;;;3.30;3.00;;;;;;;-142.52;100.00;62712.56;6112304;28;20640;-77
2023/03/17 08:03:50;;;;;;;3.50;2.20;;;;;;;-142.52;100.00;62712.56;6108628;28;20554;-78
2023/03/17 08:07:11;;;;;;;2.30;2.20;;;;;;;-142.52;100.00;62712.56;6115069;28;20234;-79
2023/03/17 08:10:32;;;;;;;3.63;2.77;;;;;;;-142.52;100.00;62712.56;6112146;28;20240;-77
2023/03/17 08:13:53;;;;;;;3.23;2.90;;;;;;;-142.52;100.00;62712.56;6111141;28;20496;-75
2023/03/17 08:17:16;;;;;;;2.57;2.37;;;;;;;-142.52;100.00;62712.56;6103081;28;20235;-77
2023/03/17 08:20:37;;;;;;;2.70;2.50;;;;;;;-142.52;100.00;62712.56;6102781;28;20247;-78
2023/03/17 08:23:58;;;;;;;3.73;2.43;;;;;;;-142.52;100.00;62712.56;6114882;28;20235;-78
2023/03/17 08:27:20;;;;;;;3.83;3.00;;;;;;;-142.52;100.00;62712.56;6110138;28;21307;-78
2023/03/17 08:30:41;;;;;;;5.37;2.60;;;;;;;-142.52;100.00;62712.56;6112889;28;20243;-79
2023/03/17 08:34:03;;;;;;;3.47;3.17;;;;;;;-142.52;100.00;62712.56;6126533;28;20228;-80
2023/03/17 08:37:24;;;;;;;3.20;2.43;;;;;;;-142.52;100.00;62712.56;6113288;28;20586;-79
2023/03/17 08:40:45;;;;;;;3.90;2.17;;;;;;;-142.52;100.00;62712.56;6121695;28;20235;-77
2023/03/17 08:44:09;;;;;;;2.67;2.47;;;;;;;-142.52;100.00;62712.56;6117992;28;20244;-78
2023/03/17 08:47:30;;;;;;;3.43;2.83;;;;;;;-142.52;100.00;62712.56;6111516;28;20238;-79
2023/03/17 08:50:53;;;;;;;4.13;2.90;;;;;;;-142.52;100.00;62712.56;6121698;28;20895;-77
2023/03/17 08:54:14;;;;;;;3.30;2.60;;;;;;;-142.52;100.00;62712.56;6135475;28;20238;-77
2023/03/17 08:57:35;;;;;;;2.83;1.70;;;;;;;-142.52;100.00;62712.56;6124186;28;20231;-77
2023/03/17 09:00:59;;;;;;;2.20;2.00;;;;;;;-142.52;100.00;62712.56;6122750;28;20378;-78
2023/03/17 09:04:22;;;;;;;3.37;2.00;;;;;;;-142.52;100.00;62712.56;6131018;28;20623;-78
2023/03/17 09:07:44;;;;;;;3.20;2.30;;;;;;;-142.52;100.00;62712.56;6127262;28;20238;-77
2023/03/17 09:11:06;;;;;;;1.93;1.80;;;;;;;-142.52;100.00;62712.56;6113921;28;20231;-78
2023/03/17 09:14:27;;;;;;;3.37;1.73;;;;;;;-142.52;100.00;62712.56;6121792;28;20250;-78
2023/03/17 09:17:48;;;;;;;3.13;2.93;;;;;;;-142.52;100.00;62712.56;6136980;28;20230;-77
2023/03/17 09:21:10;;;;;;;2.67;2.07;;;;;;;-142.52;100.00;62712.56;6116498;28;20243;-78
2023/03/17 09:24:35;;;;;;;2.40;2.20;;;;;;;-142.52;100.00;62712.56;6130937;28;20247;-78
2023/03/17 09:27:57;;;;;;;3.30;3.00;;;;;;;-142.52;100.00;62712.56;6136061;28;20231;-78
2023/03/17 09:31:18;;;;;;;2.97;2.53;;;;;;;-142.52;100.00;62712.56;6121230;28;20565;-78
2023/03/17 09:34:39;;;;;;;3.13;1.77;;;;;;;-142.52;100.00;62712.56;6117416;28;20235;-77
2023/03/17 09:38:00;;;;;;;3.20;2.10;;;;;;;-142.52;100.00;62712.56;6134983;28;20226;-77
2023/03/17 09:41:40;;;;;;;3.20;2.03;;;;;;;-142.52;100.00;62712.56;6114669;28;20608;-77
2023/03/17 09:45:17;;;;;;;2.33;1.57;;;;;;;-142.52;100.00;62712.56;6114682;28;20321;-77
2023/03/17 09:48:59;;;;;;;1.70;1.60;;;;;;;-142.52;100.00;62712.56;6127023;28;20235;-76
2023/03/17 09:52:27;;;;;;;3.27;1.97;;;;;;;-142.52;100.00;62712.56;6106535;28;20601;-77
2023/03/17 09:55:52;;;;;;;2.03;1.93;;;;;;;-142.52;100.00;62712.56;6111889;28;20231;-77
2023/03/17 09:59:32;;;;;;;2.87;1.43;;;;;;;-142.52;100.00;62712.56;6132082;28;20227;-76
2023/03/17 10:02:54;;;;;;;2.47;2.27;;;;;;;-142.52;100.00;62712.56;6133308;28;20226;-77
2023/03/17 10:06:31;;;;;;;2.50;1.60;;;;;;;-142.52;100.00;62712.56;6119419;28;20235;-77
2023/03/17 10:10:00;;;;;;;2.03;1.83;;;;;;;-142.52;100.00;62712.56;6118454;28;20289;-76
2023/03/17 10:13:42;;;;;;;1.80;1.70;;;;;;;-142.52;100.00;62712.56;6126356;28;20270;-76
2023/03/17 10:17:14;;;;;;;2.90;2.10;;;;;;;-142.52;100.00;62712.56;6119093;28;20634;-77
2023/03/17 10:20:42;;;;;;;6.10;1.57;;;;;;;-142.52;100.00;62712.56;6112494;28;20230;-78
2023/03/17 10:24:05;;;;;;;3.23;2.00;;;;;;;-142.52;100.00;62712.56;6133716;28;20234;-77
2023/03/17 10:27:26;;;;;;;4.23;1.87;;;;;;;-142.52;100.00;62712.56;6103991;28;20231;-76
2023/03/17 10:30:46;;;;;;;2.77;1.93;;;;;;;-142.52;100.00;62712.56;6113770;28;20584;-77
2023/03/17 10:34:15;;;;;;;6.07;1.50;;;;;;;-142.52;100.00;62712.56;6098060;28;20243;-77
2023/03/17 10:37:36;;;;;;;2.77;1.37;;;;;;;-142.52;100.00;62712.56;6114568;28;20224;-76
2023/03/17 10:41:01;;;;;;;1.97;1.77;;;;;;;-142.52;100.00;62712.56;6114835;28;20239;-78
2023/03/17 10:44:29;;;;;;;2.37;1.53;;;;;;;-142.52;100.00;62712.56;6132847;28;20227;-76
2023/03/17 10:47:50;;;;;;;2.27;2.10;;;;;;;-142.52;100.00;62712.56;6132195;28;20495;-76
2023/03/17 10:51:22;;;;;;;3.40;1.90;;;;;;;-142.52;100.00;62712.56;6115572;28;20223;-77
2023/03/17 10:54:47;;;;;;;3.57;1.13;;;;;;;-142.52;100.00;62712.56;6120126;28;20243;-78
2023/03/17 10:58:15;;;;;;;1.42;1.33;;;;;;;-142.52;100.00;62712.56;6116225;28;20231;-77
2023/03/17 11:01:39;;;;;;;1.45;1.35;;;;;;;-142.52;100.00;62712.56;6115528;28;20290;-76
2023/03/17 11:05:03;;;;;;;1.90;1.48;;;;;;;-142.52;100.00;62712.56;6116612;28;21194;-77
2023/03/17 11:08:24;;;;;;;1.15;1.13;;;;;;;-142.52;100.00;62712.56;6107066;28;20231;-76
2023/03/17 11:11:47;;;;;;;1.63;1.38;;;;;;;-142.52;100.00;62712.56;6088108;28;20266;-75
2023/03/17 11:15:13;;;;;;;4.65;1.70;;;;;;;-142.52;100.00;62712.56;6106667;28;20276;-75
2023/03/17 11:18:36;;;;;;;3.72;1.67;;;;;;;-142.52;100.00;62712.56;6096036;28;20220;-77
2023/03/17 11:22:07;;;;;;;1.20;1.10;;;;;;;-142.52;100.00;62712.56;6110938;28;20321;-76
2023/03/17 11:25:31;;;;;;;2.50;2.00;;;;;;;-142.52;100.00;62712.56;6103337;28;20243;-76
2023/03/17 11:29:02;;;;;;;1.80;1.58;;;;;;;-142.52;100.00;62712.56;6122615;28;20233;-76
2023/03/17 11:32:35;;;;;;;2.35;1.40;;;;;;;-142.52;100.00;62712.56;6107279;28;20368;-77
2023/03/17 11:36:06;;;;;;;1.60;1.50;;;;;;;-142.52;100.00;62712.56;6122690;28;20243;-75
2023/03/17 11:39:32;;;;;;;1.50;1.15;;;;;;;-142.52;100.00;62712.56;6129089;28;20625;-75
2023/03/17 11:43:13;;;;;;;2.20;1.85;;;;;;;-142.52;100.00;62712.56;6131526;28;20238;-78
2023/03/17 11:46:36;;;;;;;1.63;1.52;;;;;;;-142.52;100.00;62712.56;6121774;28;20239;-75
2023/03/17 11:50:05;;;;;;;2.20;1.35;;;;;;;-142.52;100.00;62712.56;6114798;28;20504;-77
2023/03/17 11:53:49;;;;;;;2.55;1.75;;;;;;;-142.52;100.00;62712.56;6124810;29;20585;-77
2023/03/17 11:57:15;;;;;;;1.60;1.50;;;;;;;-142.52;100.00;62712.56;6124957;28;20223;-76
2023/03/17 12:00:41;;;;;;;1.33;1.00;;;;;;;-142.52;100.00;62712.56;6105751;28;20261;-78
2023/03/17 12:04:12;;;;;;;1.35;1.25;;;;;;;-142.52;100.00;62712.56;6123191;28;20506;-77
2023/03/17 12:07:40;;;;;;;2.00;0.95;;;;;;;-142.52;100.00;62712.56;6121444;28;20559;-76
2023/03/17 12:11:07;;;;;;;0.77;0.77;;;;;;;-142.52;100.00;62712.56;6106011;28;20750;-76
2023/03/17 12:14:32;;;;;;;1.35;1.15;;;;;;;-142.52;100.00;62712.56;6124876;28;20247;-76
2023/03/17 12:17:59;;;;;;;2.47;1.33;;;;;;;-142.52;100.00;62712.56;6121871;28;20613;-73
2023/03/17 12:21:25;;;;;;;1.65;0.95;;;;;;;-142.52;100.00;62712.56;6107702;28;20572;-73
2023/03/17 12:24:53;;;;;;;9.45;1.77;;;;;;;-142.52;100.00;62712.56;6104033;28;20255;-74
2023/03/17 12:28:15;;;;;;;1.63;1.52;;;;;;;-142.52;100.00;62712.56;6117755;28;20238;-74
2023/03/17 12:31:41;;;;;;;1.88;1.42;;;;;;;-142.52;100.00;62712.56;6113925;28;20244;-74
2023/03/17 12:35:20;;;;;;;4.55;2.03;;;;;;;-142.52;100.00;62712.56;6096466;28;20711;-74
2023/03/17 12:38:45;;;;;;;1.38;1.00;;;;;;;-142.52;100.00;62712.56;6121299;28;20512;-75
2023/03/17 12:42:27;;;;;;;1.70;1.58;;;;;;;-142.52;100.00;62712.56;6111552;28;20266;-72
2023/03/17 12:46:01;;;;;;;1.02;1.02;;;;;;;-142.52;100.00;62712.56;6110015;28;20252;-72
2023/03/17 12:49:55;;;;;;;1.15;0.77;;;;;;;-142.52;100.00;62712.56;6124008;28;20226;-73
2023/03/17 12:53:29;;;;;;;1.08;1.08;;;;;;;-142.52;100.00;62712.56;6117308;28;20226;-73
2023/03/17 12:56:50;;;;;;;1.40;1.23;;;;;;;-142.52;100.00;62712.56;6104828;28;20243;-77
2023/03/17 13:00:19;;;;;;;1.63;1.52;;;;;;;-142.52;100.00;62712.56;6104470;28;20542;-76
2023/03/17 13:03:55;;;;;;;1.95;1.73;;;;;;;-142.52;100.00;62712.56;6118064;28;21131;-76
2023/03/17 13:07:19;;;;;;;2.17;1.05;;;;;;;-142.52;100.00;62712.56;6097728;28;20274;-78
2023/03/17 13:10:46;;;;;;;1.75;1.33;;;;;;;-142.52;100.00;62712.56;6118809;28;21934;-76
2023/03/17 13:14:23;;;;;;;1.25;1.25;;;;;;;-142.52;100.00;62712.56;6129853;28;20488;-76
2023/03/17 13:17:44;;;;;;;1.63;1.23;;;;;;;-142.52;100.00;62712.56;6122669;28;20592;-76
2023/03/17 13:21:12;;;;;;;2.15;1.45;;;;;;;-142.52;100.00;62712.56;6104934;28;20228;-76
2023/03/17 13:24:45;;;;;;;1.33;1.13;;;;;;;-142.52;100.00;62712.56;6134777;28;20504;-77
2023/03/17 13:28:24;;;;;;;2.08;1.67;;;;;;;-142.52;100.00;62712.56;6129355;28;20341;-76
2023/03/17 13:31:45;;;;;;;3.22;1.83;;;;;;;-142.52;100.00;62712.56;6118603;28;20227;-77
2023/03/17 13:35:41;;;;;;;2.50;1.80;;;;;;;-142.52;100.00;62712.56;6122484;28;20231;-76
2023/03/17 13:39:43;;;;;;;2.33;1.42;;;;;;;-142.52;100.00;62712.56;6129250;28;20230;-77
2023/03/17 13:43:31;;;;;;;1.52;1.42;;;;;;;-142.52;100.00;62712.56;6121856;28;20589;-76
2023/03/17 13:46:53;;;;;;;3.30;1.38;;;;;;;-142.52;100.00;62712.56;6120355;28;20239;-77
2023/03/17 13:50:16;;;;;;;2.60;2.40;;;;;;;-142.52;100.00;62712.56;6104746;28;20239;-77
2023/03/17 13:53:41;;;;;;;1.75;1.20;;;;;;;-142.52;100.00;62712.56;6119969;28;20645;-75
2023/03/17 13:57:35;;;;;;;10.15;1.70;;;;;;;-142.52;100.00;62712.56;6107356;28;20239;-75
2023/03/17 14:01:02;;;;;;;2.38;1.30;;;;;;;-142.52;100.00;62712.56;6070857;29;20260;-75
2023/03/17 14:04:27;;;;;;;2.55;1.52;;;;;;;-142.52;100.00;62712.56;6120431;28;20235;-76
2023/03/17 14:07:52;;;;;;;3.75;1.88;;;;;;;-142.52;100.00;62712.56;6130678;28;20608;-77
2023/03/17 14:11:23;;;;;;;1.35;1.20;;;;;;;-142.52;100.00;62712.56;6109326;28;20330;-77
2023/03/17 14:14:50;;;;;;;2.13;1.42;;;;;;;-142.52;100.00;62712.56;6118189;28;20219;-73
2023/03/17 14:18:16;;;;;;;3.13;2.13;;;;;;;-142.52;100.00;62712.56;6114505;28;20664;-73
2023/03/17 14:21:37;;;;;;;1.52;1.30;;;;;;;-142.52;100.00;62712.56;6109201;28;20322;-72
2023/03/17 14:25:01;;;;;;;2.08;1.88;;;;;;;-142.52;100.00;62712.56;6108219;28;20232;-75
2023/03/17 14:28:26;;;;;;;4.15;3.40;;;;;;;-142.52;100.00;62712.56;6115324;28;20534;-74
2023/03/17 14:31:49;;;;;;;2.67;1.52;;;;;;;-142.52;100.00;62712.56;6104455;28;20234;-74
2023/03/17 14:35:13;;;;;;;1.15;1.05;;;;;;;-142.52;100.00;62712.56;6112866;28;20306;-75
2023/03/17 14:38:36;;;;;;;0.93;0.93;;;;;;;-142.52;100.00;62712.56;6127085;28;20792;-74
2023/03/17 14:42:00;;;;;;;2.15;1.27;;;;;;;-142.52;100.00;62712.56;6113036;28;20610;-75
2023/03/17 14:45:28;;;;;;;1.30;1.20;;;;;;;-142.52;100.00;62712.56;6111464;28;20231;-74
2023/03/17 14:48:51;;;;;;;2.35;1.80;;;;;;;-142.52;100.00;62712.56;6101815;28;20294;-72
2023/03/17 14:52:20;;;;;;;0.98;0.95;;;;;;;-142.52;100.00;62712.56;6091414;28;20223;-70
2023/03/17 14:55:42;;;;;;;1.17;1.08;;;;;;;-142.52;100.00;62712.56;6115408;28;20329;-72
2023/03/17 14:59:06;;;;;;;2.28;1.33;;;;;;;-142.52;100.00;62712.56;6121507;28;20641;-72
2023/03/17 15:02:34;;;;;;;1.70;1.38;;;;;;;-142.52;100.00;62712.56;6105544;28;20549;-72
2023/03/17 15:06:04;;;;;;;1.15;1.05;;;;;;;-142.52;100.00;62712.56;6123738;28;20230;-72
2023/03/17 15:09:30;;;;;;;2.17;1.83;;;;;;;-142.52;100.00;62712.56;6122883;28;20239;-72
2023/03/17 15:13:00;;;;;;;2.15;1.25;;;;;;;-142.52;100.00;62712.56;6131185;28;20246;-74
2023/03/17 15:16:24;;;;;;;1.55;0.93;;;;;;;-142.52;100.00;62712.56;6116125;28;20321;-72
2023/03/17 15:19:47;;;;;;;1.40;1.30;;;;;;;-142.52;100.00;62712.56;6117670;28;20227;-74
2023/03/17 15:23:17;;;;;;;1.52;1.30;;;;;;;-142.52;100.00;62712.56;6128081;28;20246;-72
2023/03/17 15:26:39;;;;;;;1.50;1.37;;;;;;;-142.52;100.00;62712.56;6113914;28;20235;-76
2023/03/17 15:30:00;;;;;;;2.00;1.90;;;;;;;-142.52;100.00;62712.56;6124394;28;20271;-76